createdAt,value
2019-02-07T00:01:58.423Z,99125.98
2019-02-07T00:04:29.670Z,99125.79
2019-02-07T00:07:01.105Z,99125.79
2019-02-07T00:09:33.839Z,99128.62
2019-02-07T00:12:05.340Z,99138.46
2019-02-07T00:14:39.896Z,99142.23
2019-02-07T00:17:09.659Z,99153.28
2019-02-07T00:19:41.095Z,99153.28
2019-02-07T00:22:13.076Z,99155.44
2019-02-07T00:24:44.601Z,99164.78
2019-02-07T00:27:15.918Z,99151.16
2019-02-07T00:29:47.419Z,99148.55
2019-02-07T00:32:19.364Z,99145.17
2019-02-07T00:34:51.256Z,99145.17
2019-02-07T00:37:23.370Z,99156.39
2019-02-07T00:39:54.869Z,99171.97
2019-02-07T00:42:26.034Z,99171.97
2019-02-07T00:44:57.246Z,99183.27
2019-02-07T00:47:28.435Z,99194.25
2019-02-07T00:49:59.838Z,99199.86
2019-02-07T00:52:31.684Z,99209.17
2019-02-07T00:55:03.422Z,99209.17
2019-02-07T00:57:34.435Z,99210.52
2019-02-07T01:00:07.720Z,99209.60
2019-02-07T01:02:39.016Z,99215.33
2019-02-07T01:05:11.783Z,99222.40
2019-02-07T01:07:43.566Z,99222.40
2019-02-07T01:10:17.458Z,99224.00
2019-02-07T01:12:49.319Z,99236.84
2019-02-07T01:15:21.339Z,99236.84
2019-02-07T01:17:52.755Z,99238.54
2019-02-07T01:20:24.020Z,99223.98
2019-02-07T01:22:55.188Z,99223.98
2019-02-07T01:25:26.803Z,99217.77
2019-02-07T01:27:58.453Z,99217.77
2019-02-07T01:30:30.189Z,99217.95
2019-02-07T01:33:02.048Z,99219.02
2019-02-07T01:35:33.387Z,99219.02
2019-02-07T01:38:05.289Z,99250.73
2019-02-07T01:40:36.570Z,99246.77
2019-02-07T01:43:08.145Z,99246.77
2019-02-07T01:45:39.814Z,99244.05
2019-02-07T01:48:11.765Z,99252.44
2019-02-07T01:50:44.221Z,99256.31
2019-02-07T01:53:15.501Z,99256.31
2019-02-07T01:55:46.690Z,99267.05
2019-02-07T01:58:18.136Z,99267.72
2019-02-07T02:00:49.381Z,99267.72
2019-02-07T02:03:20.738Z,99273.02
2019-02-07T02:05:52.712Z,99273.02
2019-02-07T02:08:24.719Z,99272.24
2019-02-07T02:10:56.187Z,99301.66
2019-02-07T02:13:29.509Z,99301.66
2019-02-07T02:16:01.387Z,99305.77
2019-02-07T02:18:32.632Z,99295.16
2019-02-07T02:21:04.681Z,99305.02
2019-02-07T02:23:36.663Z,99314.97
2019-02-07T02:26:09.609Z,99328.30
2019-02-07T02:28:42.395Z,99329.44
2019-02-07T02:31:15.090Z,99344.20
2019-02-07T02:33:46.281Z,99342.21
2019-02-07T02:36:18.132Z,99342.21
2019-02-07T02:38:50.910Z,99345.45
2019-02-07T02:41:22.460Z,99351.59
2019-02-07T02:43:53.704Z,99358.96
2019-02-07T02:46:25.049Z,99358.96
2019-02-07T02:48:57.432Z,99362.80
2019-02-07T02:51:28.796Z,99364.48
2019-02-07T02:54:02.471Z,99362.57
2019-02-07T02:56:33.676Z,99362.57
2019-02-07T02:59:05.263Z,99359.73
2019-02-07T03:01:56.967Z,99358.55
2019-02-07T03:04:46.514Z,99358.55
2019-02-07T03:07:45.769Z,99379.00
2019-02-07T03:10:38.522Z,99382.30
2019-02-07T03:13:22.415Z,99382.30
2019-02-07T03:16:03.652Z,99386.37
2019-02-07T03:18:52.563Z,99393.99
2019-02-07T03:21:44.339Z,99405.47
2019-02-07T03:24:44.035Z,99413.23
2019-02-07T03:27:40.862Z,99415.73
2019-02-07T03:30:44.281Z,99415.56
2019-02-07T03:33:27.097Z,99410.79
2019-02-07T03:36:05.714Z,99410.79
2019-02-07T03:38:51.698Z,99405.64
2019-02-07T03:41:37.287Z,99412.16
2019-02-07T03:44:27.773Z,99416.74
2019-02-07T03:47:24.046Z,99416.74
2019-02-07T03:50:17.377Z,99422.23
2019-02-07T03:53:15.857Z,99422.23
2019-02-07T03:56:01.226Z,99428.25
2019-02-07T03:58:50.146Z,99427.34
2019-02-07T04:01:59.744Z,99435.86
2019-02-07T04:04:50.342Z,99428.65
2019-02-07T04:07:40.814Z,99424.21
2019-02-07T04:10:21.006Z,99429.61
2019-02-07T04:13:15.376Z,99429.61
2019-02-07T04:16:14.772Z,99440.28
2019-02-07T04:19:08.032Z,99444.66
2019-02-07T04:21:57.199Z,99436.83
2019-02-07T04:24:47.804Z,99436.83
2019-02-07T04:27:35.842Z,99443.13
2019-02-07T04:30:29.242Z,99442.77
2019-02-07T04:33:16.701Z,99443.80
2019-02-07T04:36:22.131Z,99443.80
2019-02-07T04:39:18.580Z,99454.17
2019-02-07T04:42:02.296Z,99453.60
2019-02-07T04:44:55.309Z,99453.60
2019-02-07T04:47:42.018Z,99456.33
2019-02-07T04:50:31.180Z,99456.33
2019-02-07T04:53:20.148Z,99451.39
2019-02-07T04:56:05.126Z,99457.16
2019-02-07T04:58:53.550Z,99441.88
2019-02-07T05:01:45.117Z,99439.03
2019-02-07T05:04:42.131Z,99435.85
2019-02-07T05:07:33.340Z,99438.63
2019-02-07T05:10:23.036Z,99438.63
2019-02-07T05:13:14.949Z,99429.22
2019-02-07T05:16:17.561Z,99430.86
2019-02-07T05:19:11.012Z,99434.63
2019-02-07T05:22:00.368Z,99427.75
2019-02-07T05:24:50.854Z,99417.50
2019-02-07T05:27:35.087Z,99419.16
2019-02-07T05:30:32.771Z,99413.19
2019-02-07T05:33:30.031Z,99414.86
2019-02-07T05:36:26.107Z,99402.19
2019-02-07T05:39:24.632Z,99398.97
2019-02-07T05:42:07.011Z,99381.55
2019-02-07T05:45:06.626Z,99385.91
2019-02-07T05:47:49.676Z,99386.63
2019-02-07T05:50:42.628Z,99376.54
2019-02-07T05:53:23.644Z,99377.48
2019-02-07T05:56:07.239Z,99377.48
2019-02-07T05:58:59.236Z,99371.17
2019-02-07T06:01:48.721Z,99371.03
2019-02-07T06:04:42.215Z,99372.80
2019-02-07T06:07:35.684Z,99401.06
2019-02-07T06:10:28.015Z,99374.84
2019-02-07T06:13:21.072Z,99368.98
2019-02-07T06:16:04.190Z,99368.98
2019-02-07T06:18:54.992Z,99360.86
2019-02-07T06:21:34.109Z,99361.21
2019-02-07T06:24:27.590Z,99361.21
2019-02-07T06:27:19.521Z,99347.59
2019-02-07T06:30:00.418Z,99342.73
2019-02-07T06:32:49.041Z,99340.66
2019-02-07T06:35:39.537Z,99340.66
2019-02-07T06:38:28.091Z,99344.33
2019-02-07T06:41:17.565Z,99332.61
2019-02-07T06:44:14.518Z,99327.05
2019-02-07T06:46:55.743Z,99327.05
2019-02-07T06:49:55.212Z,99324.98
2019-02-07T06:52:38.026Z,99312.20
2019-02-07T06:55:28.925Z,99312.20
2019-02-07T06:58:28.607Z,99317.71
2019-02-07T07:01:25.069Z,99306.03
2019-02-07T07:04:19.918Z,99306.92
2019-02-07T07:07:19.304Z,99284.32
2019-02-07T07:10:12.800Z,99281.09
2019-02-07T07:12:55.992Z,99263.67
2019-02-07T07:15:41.063Z,99263.67
2019-02-07T07:18:34.372Z,99252.83
2019-02-07T07:21:36.878Z,99252.83
2019-02-07T07:24:46.210Z,99239.14
2019-02-07T07:27:36.397Z,99232.55
2019-02-07T07:30:48.493Z,99232.55
2019-02-07T07:33:33.225Z,99237.06
2019-02-07T07:36:30.652Z,99237.06
2019-02-07T07:39:26.651Z,99243.52
2019-02-07T07:42:15.616Z,99220.11
2019-02-07T07:45:09.206Z,99208.98
2019-02-07T07:47:59.281Z,99202.89
2019-02-07T07:50:49.661Z,99186.43
2019-02-07T07:53:58.268Z,99186.43
2019-02-07T07:56:51.629Z,99177.55
2019-02-07T07:59:40.909Z,99179.20
2019-02-07T08:02:29.872Z,99179.20
2019-02-07T08:05:19.753Z,99175.56
2019-02-07T08:08:16.390Z,99159.05
2019-02-07T08:10:57.151Z,99158.25
2019-02-07T08:13:36.794Z,99153.62
2019-02-07T08:16:37.119Z,99141.50
2019-02-07T08:19:33.154Z,99126.14
2019-02-07T08:22:26.724Z,99126.14
2019-02-07T08:25:19.572Z,99110.69
2019-02-07T08:28:13.254Z,99114.53
2019-02-07T08:31:01.798Z,99114.78
2019-02-07T08:33:52.191Z,99114.78
2019-02-07T08:37:11.863Z,99098.42
2019-02-07T08:40:02.366Z,99098.42
2019-02-07T08:42:59.946Z,99104.08
2019-02-07T08:45:50.126Z,99104.08
2019-02-07T08:48:41.639Z,99109.84
2019-02-07T08:51:49.906Z,99109.84
2019-02-07T08:54:43.418Z,99080.43
2019-02-07T08:57:28.799Z,99080.05
2019-02-07T09:00:18.976Z,99085.87
2019-02-07T09:03:21.152Z,99075.19
2019-02-07T09:06:20.765Z,99075.19
2019-02-07T09:09:09.723Z,99063.78
2019-02-07T09:12:04.535Z,99065.49
2019-02-07T09:14:57.780Z,99065.49
2019-02-07T09:17:56.684Z,99050.73
2019-02-07T09:20:50.561Z,99078.10
2019-02-07T09:23:41.494Z,99074.39
2019-02-07T09:26:32.170Z,99058.97
2019-02-07T09:29:31.678Z,99064.47
2019-02-07T09:32:19.465Z,99058.63
2019-02-07T09:35:16.443Z,99060.47
2019-02-07T09:38:12.572Z,99029.10
2019-02-07T09:41:01.735Z,99040.16
2019-02-07T09:43:52.264Z,99056.69
2019-02-07T09:46:51.522Z,99056.69
2019-02-07T09:49:43.286Z,99024.13
2019-02-07T09:52:23.945Z,99001.27
2019-02-07T09:55:13.398Z,99000.05
2019-02-07T09:58:04.518Z,98992.56
2019-02-07T10:00:54.773Z,98987.02
2019-02-07T10:03:54.637Z,98987.02
2019-02-07T10:06:46.645Z,98997.47
2019-02-07T10:09:35.045Z,98983.28
2019-02-07T10:12:44.537Z,98969.37
2019-02-07T10:15:37.840Z,98969.37
2019-02-07T10:18:33.090Z,98958.77
2019-02-07T10:21:17.772Z,98958.77
2019-02-07T10:23:56.754Z,98951.42
2019-02-07T10:26:55.700Z,98953.90
2019-02-07T10:29:46.393Z,98954.37
2019-02-07T10:32:35.580Z,98954.37
2019-02-07T10:35:28.053Z,98973.52
2019-02-07T10:38:17.371Z,98964.30
2019-02-07T10:41:11.145Z,98975.69
2019-02-07T10:43:59.904Z,98974.84
2019-02-07T10:46:48.862Z,98974.84
2019-02-07T10:49:43.045Z,98973.38
2019-02-07T10:52:36.713Z,98943.03
2019-02-07T10:55:19.482Z,98969.63
2019-02-07T10:58:15.541Z,98995.94
2019-02-07T11:01:03.081Z,98995.94
2019-02-07T11:03:53.267Z,98991.22
2019-02-07T11:06:42.333Z,98978.89
2019-02-07T11:09:51.157Z,98988.13
2019-02-07T11:12:44.116Z,98990.38
2019-02-07T11:15:34.592Z,98990.38
2019-02-07T11:18:23.995Z,98974.30
2019-02-07T11:21:29.523Z,98976.49
2019-02-07T11:24:25.460Z,98988.84
2019-02-07T11:27:15.467Z,98988.84
2019-02-07T11:30:13.919Z,98979.70
2019-02-07T11:32:51.812Z,98979.70
2019-02-07T11:35:42.002Z,98995.55
2019-02-07T11:38:33.817Z,98995.55
2019-02-07T11:41:22.157Z,98988.93
2019-02-07T11:44:10.919Z,98988.93
2019-02-07T11:47:05.326Z,98997.56
2019-02-07T11:49:51.917Z,98998.34
2019-02-07T11:52:41.803Z,98993.56
2019-02-07T11:55:35.289Z,99013.49
2019-02-07T11:58:24.039Z,99013.49
2019-02-07T12:01:20.147Z,98997.61
2019-02-07T12:04:22.933Z,98990.86
2019-02-07T12:07:25.223Z,99004.55
2019-02-07T12:10:14.065Z,99005.86
2019-02-07T12:12:53.842Z,99009.59
2019-02-07T12:15:41.021Z,98998.95
2019-02-07T12:18:30.712Z,98997.64
2019-02-07T12:21:09.954Z,99003.43
2019-02-07T12:23:53.370Z,99008.88
2019-02-07T12:26:44.272Z,99008.88
2019-02-07T12:29:35.375Z,99020.67
2019-02-07T12:32:26.381Z,99018.31
2019-02-07T12:35:06.454Z,99023.64
2019-02-07T12:37:55.508Z,99030.30
2019-02-07T12:40:46.107Z,99038.02
2019-02-07T12:43:35.479Z,99045.14
2019-02-07T12:46:25.970Z,99045.14
2019-02-07T12:49:14.839Z,99058.88
2019-02-07T12:52:01.853Z,99058.80
2019-02-07T12:55:02.480Z,99058.80
2019-02-07T12:57:51.344Z,99066.82
2019-02-07T13:00:40.307Z,99066.82
2019-02-07T13:03:30.596Z,99070.39
2019-02-07T13:06:33.284Z,99062.16
2019-02-07T13:09:21.105Z,99062.16
2019-02-07T13:12:20.419Z,99071.30
2019-02-07T13:15:02.111Z,99070.72
2019-02-07T13:17:52.081Z,99070.72
2019-02-07T13:20:48.268Z,99064.55
2019-02-07T13:23:37.515Z,99087.56
2019-02-07T13:26:26.760Z,99093.44
2019-02-07T13:29:16.335Z,99093.44
2019-02-07T13:32:05.554Z,99101.20
2019-02-07T13:35:07.138Z,99116.69
2019-02-07T13:38:12.297Z,99116.69
2019-02-07T13:41:06.887Z,99111.31
2019-02-07T13:43:59.825Z,99111.48
2019-02-07T13:46:49.099Z,99114.56
2019-02-07T13:49:33.666Z,99111.39
2019-02-07T13:52:22.615Z,99133.16
2019-02-07T13:55:21.822Z,99154.27
2019-02-07T13:58:09.239Z,99157.65
2019-02-07T14:00:59.930Z,99165.55
2019-02-07T14:03:53.107Z,99165.55
2019-02-07T14:06:52.817Z,99189.98
2019-02-07T14:09:49.069Z,99199.05
2019-02-07T14:12:49.083Z,99204.40
2019-02-07T14:15:39.472Z,99211.53
2019-02-07T14:18:29.945Z,99211.53
2019-02-07T14:21:26.362Z,99209.00
2019-02-07T14:24:14.889Z,99211.05
2019-02-07T14:27:02.147Z,99223.39
2019-02-07T14:30:11.105Z,99227.27
2019-02-07T14:33:04.873Z,99248.81
2019-02-07T14:35:53.625Z,99248.81
2019-02-07T14:38:58.865Z,99258.59
2019-02-07T14:41:49.055Z,99259.63
2019-02-07T14:44:29.106Z,99259.83
2019-02-07T14:47:00.620Z,99273.84
2019-02-07T14:49:31.830Z,99281.99
2019-02-07T14:52:03.457Z,99295.19
2019-02-07T14:54:34.945Z,99292.95
2019-02-07T14:57:06.687Z,99315.41
2019-02-07T14:59:38.240Z,99310.69
2019-02-07T15:02:09.788Z,99313.05
2019-02-07T15:04:41.545Z,99311.66
2019-02-07T15:07:13.031Z,99311.53
2019-02-07T15:09:44.484Z,99318.82
2019-02-07T15:12:16.172Z,99335.33
2019-02-07T15:14:47.391Z,99335.33
2019-02-07T15:17:18.982Z,99337.80
2019-02-07T15:19:50.388Z,99337.80
2019-02-07T15:22:21.529Z,99352.77
2019-02-07T15:24:52.844Z,99352.62
2019-02-07T15:27:24.090Z,99368.00
2019-02-07T15:29:55.714Z,99380.86
2019-02-07T15:32:26.872Z,99380.86
2019-02-07T15:34:58.232Z,99384.67
2019-02-07T15:37:29.626Z,99384.67
2019-02-07T15:40:01.001Z,99394.20
2019-02-07T15:42:33.712Z,99402.55
2019-02-07T15:45:06.906Z,99402.55
2019-02-07T15:47:38.305Z,99406.22
2019-02-07T15:50:15.804Z,99403.45
2019-02-07T15:52:52.239Z,99401.62
2019-02-07T15:55:23.824Z,99407.62
2019-02-07T15:57:55.244Z,99418.28
2019-02-07T16:00:44.038Z,99418.28
2019-02-07T16:03:34.931Z,99419.91
2019-02-07T16:06:06.764Z,99428.66
2019-02-07T16:08:38.333Z,99429.88
2019-02-07T16:11:10.095Z,99432.43
2019-02-07T16:13:41.236Z,99430.19
2019-02-07T16:16:12.795Z,99430.19
2019-02-07T16:18:44.245Z,99440.77
2019-02-07T16:21:15.479Z,99444.08
2019-02-07T16:23:46.696Z,99444.08
2019-02-07T16:26:18.093Z,99451.92
2019-02-07T16:28:49.534Z,99459.80
2019-02-07T16:31:20.922Z,99458.75
2019-02-07T16:33:52.259Z,99465.44
2019-02-07T16:36:23.783Z,99465.44
2019-02-07T16:38:55.429Z,99463.81
2019-02-07T16:41:27.098Z,99463.81
2019-02-07T16:43:58.464Z,99476.87
2019-02-07T16:46:29.613Z,99476.87
2019-02-07T16:49:01.079Z,99474.94
2019-02-07T16:51:33.093Z,99483.13
2019-02-07T16:54:03.932Z,99488.77
2019-02-07T16:56:35.530Z,99494.77
2019-02-07T16:59:07.387Z,99503.53
2019-02-07T17:01:38.899Z,99499.61
2019-02-07T17:04:10.745Z,99499.61
2019-02-07T17:06:42.108Z,99502.90
2019-02-07T17:09:20.080Z,99502.90
2019-02-07T17:11:51.782Z,99500.30
2019-02-07T17:14:23.393Z,99507.16
2019-02-07T17:16:54.819Z,99507.16
2019-02-07T17:19:26.025Z,99510.63
2019-02-07T17:21:57.252Z,99510.63
2019-02-07T17:24:28.958Z,99520.42
2019-02-07T17:27:00.595Z,99519.06
2019-02-07T17:29:32.321Z,99519.06
2019-02-07T17:32:04.455Z,99516.27
2019-02-07T17:34:35.859Z,99516.27
2019-02-07T17:37:07.380Z,99521.97
2019-02-07T17:39:39.472Z,99522.27
2019-02-07T17:42:11.095Z,99520.57
2019-02-07T17:44:42.840Z,99520.57
2019-02-07T17:47:14.430Z,99534.16
2019-02-07T17:49:46.210Z,99534.16
2019-02-07T17:52:17.607Z,99538.70
2019-02-07T17:54:49.436Z,99538.70
2019-02-07T17:57:21.189Z,99542.33
2019-02-07T17:59:52.812Z,99549.66
2019-02-07T18:02:24.064Z,99549.66
2019-02-07T18:04:55.476Z,99540.58
2019-02-07T18:07:27.070Z,99549.80
2019-02-07T18:09:58.795Z,99547.18
2019-02-07T18:12:30.407Z,99547.18
2019-02-07T18:15:01.558Z,99557.91
2019-02-07T18:17:33.338Z,99557.91
2019-02-07T18:20:05.021Z,99559.83
2019-02-07T18:22:36.204Z,99561.98
2019-02-07T18:25:08.764Z,99561.98
2019-02-07T18:27:41.901Z,99561.64
2019-02-07T18:30:16.498Z,99561.64
2019-02-07T18:32:48.179Z,99550.77
2019-02-07T18:35:22.412Z,99550.77
2019-02-07T18:37:53.939Z,99547.31
2019-02-07T18:40:26.451Z,99556.58
2019-02-07T18:42:57.887Z,99551.21
2019-02-07T18:45:29.334Z,99549.70
2019-02-07T18:48:00.599Z,99552.81
2019-02-07T18:50:36.385Z,99547.36
2019-02-07T18:53:08.191Z,99542.59
2019-02-07T18:55:40.415Z,99541.34
2019-02-07T18:58:11.748Z,99551.16
2019-02-07T19:00:43.812Z,99554.91
2019-02-07T19:03:15.194Z,99554.91
2019-02-07T19:05:46.642Z,99547.09
2019-02-07T19:08:18.313Z,99547.09
2019-02-07T19:10:49.718Z,99556.73
2019-02-07T19:13:21.304Z,99556.73
2019-02-07T19:15:59.122Z,99559.68
2019-02-07T19:18:30.960Z,99559.68
2019-02-07T19:21:02.563Z,99560.89
2019-02-07T19:23:34.321Z,99566.18
2019-02-07T19:26:06.104Z,99564.29
2019-02-07T19:28:37.252Z,99564.29
2019-02-07T19:31:08.734Z,99567.98
2019-02-07T19:33:40.353Z,99584.63
2019-02-07T19:36:12.255Z,99579.23
2019-02-07T19:38:44.017Z,99572.47
2019-02-07T19:41:16.008Z,99573.16
2019-02-07T19:43:47.363Z,99574.86
2019-02-07T19:46:18.680Z,99574.86
2019-02-07T19:48:50.070Z,99586.90
2019-02-07T19:51:21.731Z,99586.90
2019-02-07T19:53:53.231Z,99584.92
2019-02-07T19:56:24.779Z,99586.50
2019-02-07T19:58:56.191Z,99586.59
2019-02-07T20:01:27.575Z,99589.77
2019-02-07T20:03:59.018Z,99589.72
2019-02-07T20:06:30.774Z,99589.72
2019-02-07T20:09:02.059Z,99595.42
2019-02-07T20:11:35.337Z,99592.33
2019-02-07T20:14:07.424Z,99600.86
2019-02-07T20:16:38.893Z,99594.84
2019-02-07T20:19:10.357Z,99595.47
2019-02-07T20:21:41.881Z,99593.80
2019-02-07T20:24:13.383Z,99593.80
2019-02-07T20:26:45.339Z,99607.98
2019-02-07T20:29:16.700Z,99599.23
2019-02-07T20:31:48.230Z,99590.95
2019-02-07T20:34:19.961Z,99590.95
2019-02-07T20:36:51.649Z,99585.16
2019-02-07T20:39:23.369Z,99588.56
2019-02-07T20:41:55.156Z,99582.11
2019-02-07T20:44:28.478Z,99582.11
2019-02-07T20:46:59.834Z,99578.69
2019-02-07T20:49:31.275Z,99587.94
2019-02-07T20:52:04.980Z,99583.63
2019-02-07T20:54:37.735Z,99585.02
2019-02-07T20:57:09.130Z,99585.02
2019-02-07T20:59:41.358Z,99580.13
2019-02-07T21:02:13.685Z,99574.16
2019-02-07T21:04:45.043Z,99576.91
2019-02-07T21:07:16.378Z,99569.27
2019-02-07T21:09:48.000Z,99574.38
2019-02-07T21:12:20.910Z,99574.38
2019-02-07T21:14:52.230Z,99569.86
2019-02-07T21:17:23.414Z,99569.86
2019-02-07T21:19:55.014Z,99567.03
2019-02-07T21:22:26.477Z,99569.10
2019-02-07T21:24:57.827Z,99569.10
2019-02-07T21:27:28.996Z,99563.12
2019-02-07T21:30:00.704Z,99560.57
2019-02-07T21:32:32.924Z,99552.45
2019-02-07T21:35:05.112Z,99566.23
2019-02-07T21:37:37.508Z,99576.23
2019-02-07T21:40:09.500Z,99596.80
2019-02-07T21:42:40.722Z,99596.80
2019-02-07T21:45:13.251Z,99604.41
2019-02-07T21:47:44.653Z,99594.73
2019-02-07T21:50:27.881Z,99594.73
2019-02-07T21:53:00.152Z,99598.13
2019-02-07T21:55:32.055Z,99592.97
2019-02-07T21:58:03.750Z,99591.85
2019-02-07T22:00:37.230Z,99597.26
2019-02-07T22:03:10.883Z,99607.39
2019-02-07T22:05:43.720Z,99607.39
2019-02-07T22:08:14.941Z,99603.00
2019-02-07T22:10:46.530Z,99603.00
2019-02-07T22:13:17.803Z,99600.20
2019-02-07T22:15:49.450Z,99598.78
2019-02-07T22:18:20.710Z,99599.19
2019-02-07T22:20:52.052Z,99601.55
2019-02-07T22:23:23.218Z,99601.55
2019-02-07T22:25:55.127Z,99602.00
2019-02-07T22:28:26.499Z,99602.80
2019-02-07T22:30:58.134Z,99608.05
2019-02-07T22:33:29.822Z,99603.30
2019-02-07T22:36:01.408Z,99603.78
2019-02-07T22:38:33.094Z,99602.48
2019-02-07T22:41:04.313Z,99609.27
2019-02-07T22:43:35.758Z,99609.27
2019-02-07T22:46:07.146Z,99613.47
2019-02-07T22:48:38.538Z,99617.98
2019-02-07T22:51:09.855Z,99613.59
2019-02-07T22:53:41.694Z,99619.85
2019-02-07T22:56:12.935Z,99619.85
2019-02-07T22:58:44.439Z,99625.01
2019-02-07T23:01:54.337Z,99623.11
2019-02-07T23:04:26.909Z,99627.80
2019-02-07T23:06:58.359Z,99633.42
2019-02-07T23:09:29.800Z,99627.33
2019-02-07T23:12:01.211Z,99627.33
2019-02-07T23:14:32.522Z,99625.92
2019-02-07T23:17:05.577Z,99623.34
2019-02-07T23:19:36.846Z,99630.67
2019-02-07T23:22:08.303Z,99625.19
2019-02-07T23:24:39.944Z,99625.19
2019-02-07T23:27:11.544Z,99620.70
2019-02-07T23:29:42.659Z,99618.34
2019-02-07T23:32:14.164Z,99618.34
2019-02-07T23:34:45.374Z,99629.39
2019-02-07T23:37:17.051Z,99629.39
2019-02-07T23:39:48.690Z,99635.09
2019-02-07T23:42:20.389Z,99634.35
2019-02-07T23:44:51.586Z,99638.03
2019-02-07T23:47:22.934Z,99644.74
2019-02-07T23:49:54.739Z,99638.70
2019-02-07T23:52:26.295Z,99638.70
2019-02-07T23:54:57.560Z,99641.63
2019-02-07T23:57:29.117Z,99638.03
